createdAt,value
2023-04-22T00:00:15.878Z,30.18
2023-04-22T00:00:46.295Z,30.38
2023-04-22T00:01:16.716Z,30.38
2023-04-22T00:01:47.180Z,30.18
2023-04-22T00:02:17.752Z,30.18
2023-04-22T00:02:48.389Z,30.38
2023-04-22T00:03:19.129Z,30.28
2023-04-22T00:03:49.816Z,30.38
2023-04-22T00:04:20.519Z,30.48
2023-04-22T00:04:51.206Z,30.28
2023-04-22T00:05:21.953Z,30.28
2023-04-22T00:05:52.451Z,30.28
2023-04-22T00:06:22.884Z,30.28
2023-04-22T00:06:53.306Z,30.48
2023-04-22T00:07:23.744Z,30.38
2023-04-22T00:07:54.180Z,30.18
2023-04-22T00:08:24.603Z,30.48
2023-04-22T00:08:55.028Z,30.48
2023-04-22T00:09:25.451Z,30.08
2023-04-22T00:09:55.871Z,30.08
2023-04-22T00:10:26.304Z,30.18
2023-04-22T00:10:56.736Z,30.38
2023-04-22T00:11:27.151Z,30.38
2023-04-22T00:11:57.571Z,30.48
2023-04-22T00:12:27.993Z,30.18
2023-04-22T00:12:58.424Z,30.38
2023-04-22T00:13:28.848Z,30.48
2023-04-22T00:13:59.274Z,30.68
2023-04-22T00:14:29.698Z,30.28
2023-04-22T00:15:00.160Z,30.48
2023-04-22T00:15:30.555Z,30.48
2023-04-22T00:16:01.098Z,30.28
2023-04-22T00:16:31.554Z,30.38
2023-04-22T00:17:02.011Z,30.48
2023-04-22T00:17:32.443Z,30.38
2023-04-22T00:18:02.944Z,30.08
2023-04-22T00:18:33.355Z,30.28
2023-04-22T00:19:03.779Z,30.28
2023-04-22T00:19:34.198Z,30.28
2023-04-22T00:20:04.726Z,30.18
2023-04-22T00:20:35.145Z,30.38
2023-04-22T00:21:05.583Z,30.18
2023-04-22T00:21:36.010Z,30.58
2023-04-22T00:22:06.435Z,30.28
2023-04-22T00:22:36.855Z,30.28
2023-04-22T00:23:07.322Z,30.48
2023-04-22T00:23:37.750Z,30.78
2023-04-22T00:24:08.143Z,30.78
2023-04-22T00:24:38.571Z,30.28
2023-04-22T00:25:08.982Z,30.08
2023-04-22T00:25:39.407Z,30.08
2023-04-22T00:26:09.851Z,30.38
2023-04-22T00:26:40.261Z,30.28
2023-04-22T00:27:10.686Z,30.78
2023-04-22T00:27:41.106Z,30.38
2023-04-22T00:28:11.535Z,30.68
2023-04-22T00:28:41.953Z,30.48
2023-04-22T00:29:12.384Z,30.58
2023-04-22T00:29:42.799Z,30.78
2023-04-22T00:30:13.215Z,30.38
2023-04-22T00:30:43.645Z,30.38
2023-04-22T00:31:14.107Z,30.18
2023-04-22T00:31:44.628Z,30.38
2023-04-22T00:32:15.118Z,30.38
2023-04-22T00:32:45.507Z,30.38
2023-04-22T00:33:15.926Z,30.58
2023-04-22T00:33:46.351Z,30.68
2023-04-22T00:34:16.764Z,30.58
2023-04-22T00:34:47.213Z,30.58
2023-04-22T00:35:17.609Z,30.48
2023-04-22T00:35:48.030Z,30.28
2023-04-22T00:36:18.455Z,30.18
2023-04-22T00:36:48.875Z,30.38
2023-04-22T00:37:19.304Z,30.68
2023-04-22T00:37:49.724Z,30.78
2023-04-22T00:38:20.152Z,30.38
2023-04-22T00:38:50.571Z,30.68
2023-04-22T00:39:21.000Z,30.28
2023-04-22T00:39:51.418Z,30.28
2023-04-22T00:40:21.873Z,30.48
2023-04-22T00:40:52.271Z,29.98
2023-04-22T00:41:22.695Z,30.08
2023-04-22T00:41:53.112Z,30.38
2023-04-22T00:42:23.540Z,30.48
2023-04-22T00:42:53.965Z,30.88
2023-04-22T00:43:24.392Z,30.18
2023-04-22T00:43:54.822Z,30.28
2023-04-22T00:44:25.242Z,30.38
2023-04-22T00:44:55.750Z,30.38
2023-04-22T00:45:26.161Z,30.38
2023-04-22T00:45:56.562Z,30.08
2023-04-22T00:46:27.044Z,30.28
2023-04-22T00:46:57.476Z,30.38
2023-04-22T00:47:28.007Z,30.18
2023-04-22T00:47:58.448Z,30.28
2023-04-22T00:48:29.035Z,30.78
2023-04-22T00:48:59.502Z,30.58
2023-04-22T00:49:29.930Z,30.38
2023-04-22T00:50:00.342Z,30.38
2023-04-22T00:50:30.764Z,30.28
2023-04-22T00:51:01.199Z,30.28
2023-04-22T00:51:31.623Z,30.58
2023-04-22T00:52:02.045Z,30.28
2023-04-22T00:52:32.469Z,30.38
2023-04-22T00:53:02.934Z,30.48
2023-04-22T00:53:33.334Z,30.48
2023-04-22T00:54:03.765Z,30.38
2023-04-22T00:54:34.190Z,30.28
2023-04-22T00:55:04.611Z,30.28
2023-04-22T00:55:35.034Z,30.28
2023-04-22T00:56:05.459Z,30.38
2023-04-22T00:56:35.886Z,30.28
2023-04-22T00:57:06.304Z,30.28
2023-04-22T00:57:36.726Z,30.18
2023-04-22T00:58:07.146Z,29.88
2023-04-22T00:58:37.603Z,29.88
2023-04-22T00:59:08.016Z,30.08
2023-04-22T00:59:38.630Z,30.18
2023-04-22T01:00:09.194Z,30.38
2023-04-22T01:00:39.665Z,30.38
2023-04-22T01:01:10.140Z,30.08
2023-04-22T01:01:40.547Z,30.18
2023-04-22T01:02:11.127Z,30.08
2023-04-22T01:02:41.724Z,30.28
2023-04-22T01:03:12.337Z,30.28
2023-04-22T01:03:42.912Z,30.48
2023-04-22T01:04:13.450Z,30.58
2023-04-22T01:04:43.845Z,30.28
2023-04-22T01:05:14.261Z,30.28
2023-04-22T01:05:44.688Z,30.18
2023-04-22T01:06:15.120Z,30.38
2023-04-22T01:06:45.535Z,30.18
2023-04-22T01:07:15.956Z,30.08
2023-04-22T01:07:46.381Z,30.28
2023-04-22T01:08:16.825Z,30.18
2023-04-22T01:08:47.261Z,30.18
2023-04-22T01:09:17.684Z,30.48
2023-04-22T01:09:48.102Z,30.08
2023-04-22T01:10:18.537Z,30.68
2023-04-22T01:10:48.949Z,30.38
2023-04-22T01:11:19.391Z,30.08
2023-04-22T01:11:49.798Z,30.18
2023-04-22T01:12:20.220Z,30.28
2023-04-22T01:12:50.641Z,30.08
2023-04-22T01:13:21.065Z,30.18
2023-04-22T01:13:51.505Z,30.18
2023-04-22T01:14:21.927Z,30.48
2023-04-22T01:14:52.350Z,30.48
2023-04-22T01:15:22.779Z,30.08
2023-04-22T01:15:53.233Z,29.98
2023-04-22T01:16:23.671Z,30.28
2023-04-22T01:16:54.181Z,30.28
2023-04-22T01:17:24.682Z,30.68
2023-04-22T01:17:55.186Z,30.48
2023-04-22T01:18:25.584Z,30.28
2023-04-22T01:18:56.014Z,30.38
2023-04-22T01:19:26.441Z,30.58
2023-04-22T01:19:56.873Z,30.58
2023-04-22T01:20:27.293Z,30.28
2023-04-22T01:20:57.720Z,30.58
2023-04-22T01:21:28.139Z,30.38
2023-04-22T01:21:58.550Z,30.38
2023-04-22T01:22:28.970Z,30.18
2023-04-22T01:22:59.394Z,30.18
2023-04-22T01:23:29.821Z,30.08
2023-04-22T01:24:00.257Z,30.08
2023-04-22T01:24:30.688Z,29.98
2023-04-22T01:25:01.146Z,30.18
2023-04-22T01:25:31.550Z,30.18
2023-04-22T01:26:01.970Z,30.08
2023-04-22T01:26:32.392Z,30.48
2023-04-22T01:27:02.809Z,30.28
2023-04-22T01:27:33.233Z,30.18
2023-04-22T01:28:03.653Z,30.18
2023-04-22T01:28:34.094Z,30.38
2023-04-22T01:29:04.508Z,30.48
2023-04-22T01:29:34.944Z,30.48
2023-04-22T01:30:05.368Z,30.48
2023-04-22T01:30:35.828Z,30.28
2023-04-22T01:31:06.217Z,30.38
2023-04-22T01:31:36.685Z,30.48
2023-04-22T01:32:07.218Z,30.38
2023-04-22T01:32:37.696Z,30.38
2023-04-22T01:33:08.310Z,30.68
2023-04-22T01:33:38.715Z,30.48
2023-04-22T01:34:09.136Z,30.28
2023-04-22T01:34:39.564Z,30.28
2023-04-22T01:35:10.014Z,30.28
2023-04-22T01:35:40.423Z,30.08
2023-04-22T01:36:12.934Z,30.48
2023-04-22T01:36:43.629Z,30.38
2023-04-22T01:37:14.057Z,30.18
2023-04-22T01:37:44.470Z,30.08
2023-04-22T01:38:14.912Z,30.08
2023-04-22T01:38:45.311Z,30.08
2023-04-22T01:39:15.757Z,30.08
2023-04-22T01:39:46.179Z,30.08
2023-04-22T01:40:16.605Z,30.28
2023-04-22T01:40:47.029Z,30.48
2023-04-22T01:41:17.470Z,30.08
2023-04-22T01:41:47.868Z,29.98
2023-04-22T01:42:18.294Z,29.98
2023-04-22T01:42:48.726Z,30.18
2023-04-22T01:43:19.168Z,30.38
2023-04-22T01:43:49.619Z,30.58
2023-04-22T01:44:20.037Z,30.18
2023-04-22T01:44:50.453Z,29.98
2023-04-22T01:45:20.878Z,30.18
2023-04-22T01:45:51.314Z,30.18
2023-04-22T01:46:21.776Z,29.98
2023-04-22T01:46:52.199Z,29.98
2023-04-22T01:47:22.620Z,29.98
2023-04-22T01:47:53.078Z,30.28
2023-04-22T01:48:23.497Z,30.48
2023-04-22T01:48:53.911Z,30.08
2023-04-22T01:49:24.342Z,29.98
2023-04-22T01:49:54.758Z,30.08
2023-04-22T01:50:25.178Z,30.08
2023-04-22T01:50:55.604Z,30.18
2023-04-22T01:51:26.032Z,29.98
2023-04-22T01:51:56.455Z,29.98
2023-04-22T01:52:26.874Z,30.28
2023-04-22T01:52:57.321Z,30.18
2023-04-22T01:53:27.739Z,30.38
2023-04-22T01:53:58.165Z,30.08
2023-04-22T01:54:28.611Z,30.18
2023-04-22T01:54:59.025Z,30.38
2023-04-22T01:55:29.443Z,30.18
2023-04-22T01:55:59.867Z,29.98
2023-04-22T01:56:30.294Z,30.18
2023-04-22T01:57:00.719Z,30.48
2023-04-22T01:57:31.146Z,30.58
2023-04-22T01:58:01.568Z,30.18
2023-04-22T01:58:31.991Z,30.18
2023-04-22T01:59:02.417Z,30.10
2023-04-22T01:59:32.863Z,30.18
2023-04-22T02:00:03.309Z,30.10
2023-04-22T02:00:33.725Z,30.08
2023-04-22T02:01:04.179Z,30.28
2023-04-22T02:01:34.571Z,30.49
2023-04-22T02:02:05.009Z,30.28
2023-04-22T02:02:35.537Z,30.18
2023-04-22T02:03:06.012Z,30.10
2023-04-22T02:03:36.497Z,30.10
2023-04-22T02:04:06.922Z,30.10
2023-04-22T02:04:37.391Z,29.90
2023-04-22T02:05:07.840Z,30.10
2023-04-22T02:05:38.279Z,30.19
2023-04-22T02:06:08.705Z,29.99
2023-04-22T02:06:39.123Z,29.99
2023-04-22T02:07:09.540Z,30.10
2023-04-22T02:07:39.970Z,30.19
2023-04-22T02:08:10.385Z,30.10
2023-04-22T02:08:40.817Z,30.10
2023-04-22T02:09:11.231Z,30.10
2023-04-22T02:09:42.194Z,30.19
2023-04-22T02:10:12.743Z,29.99
2023-04-22T02:10:43.165Z,30.29
2023-04-22T02:11:13.589Z,29.99
2023-04-22T02:11:44.043Z,29.99
2023-04-22T02:12:14.447Z,29.99
2023-04-22T02:12:44.866Z,30.29
2023-04-22T02:13:15.289Z,30.29
2023-04-22T02:13:45.726Z,30.29
2023-04-22T02:14:16.141Z,30.19
2023-04-22T02:14:46.573Z,30.49
2023-04-22T02:15:17.001Z,30.29
2023-04-22T02:15:47.467Z,29.90
2023-04-22T02:16:17.902Z,29.99
2023-04-22T02:16:48.291Z,29.99
2023-04-22T02:17:18.727Z,29.99
2023-04-22T02:17:49.145Z,29.98
2023-04-22T02:18:19.568Z,29.90
2023-04-22T02:18:50.007Z,29.99
2023-04-22T02:19:20.415Z,30.10
2023-04-22T02:19:50.899Z,29.99
2023-04-22T02:20:21.282Z,30.10
2023-04-22T02:20:51.703Z,30.10
2023-04-22T02:21:22.124Z,30.10
2023-04-22T02:21:52.545Z,29.99
2023-04-22T02:22:22.965Z,29.99
2023-04-22T02:22:53.390Z,29.90
2023-04-22T02:23:23.816Z,29.90
2023-04-22T02:23:54.254Z,29.99
2023-04-22T02:24:24.678Z,29.99
2023-04-22T02:24:55.103Z,29.99
2023-04-22T02:25:25.528Z,30.10
2023-04-22T02:25:56.003Z,30.60
2023-04-22T02:26:26.383Z,30.40
2023-04-22T02:26:56.828Z,30.19
2023-04-22T02:27:27.252Z,30.10
2023-04-22T02:27:57.671Z,29.99
2023-04-22T02:28:28.092Z,29.99
2023-04-22T02:28:58.509Z,30.10
2023-04-22T02:29:28.944Z,30.10
2023-04-22T02:29:59.368Z,30.10
2023-04-22T02:30:29.800Z,29.99
2023-04-22T02:31:00.282Z,30.19
2023-04-22T02:31:30.703Z,30.49
2023-04-22T02:32:01.094Z,30.29
2023-04-22T02:32:31.582Z,30.19
2023-04-22T02:33:02.014Z,29.99
2023-04-22T02:33:32.413Z,30.10
2023-04-22T02:34:02.878Z,29.99
2023-04-22T02:34:33.276Z,30.10
2023-04-22T02:35:03.709Z,29.90
2023-04-22T02:35:34.130Z,29.90
2023-04-22T02:36:04.555Z,30.10
2023-04-22T02:36:34.977Z,30.10
2023-04-22T02:37:05.409Z,30.19
2023-04-22T02:37:35.822Z,29.99
2023-04-22T02:38:06.256Z,29.90
2023-04-22T02:38:36.681Z,29.90
2023-04-22T02:39:07.099Z,29.99
2023-04-22T02:39:37.870Z,29.90
2023-04-22T02:40:08.581Z,29.99
2023-04-22T02:40:38.980Z,29.99
2023-04-22T02:41:09.398Z,29.99
2023-04-22T02:41:39.836Z,29.90
2023-04-22T02:42:10.249Z,29.99
2023-04-22T02:42:40.678Z,29.90
2023-04-22T02:43:11.099Z,29.90
2023-04-22T02:43:41.518Z,29.90
2023-04-22T02:44:11.943Z,30.19
2023-04-22T02:44:42.367Z,29.90
2023-04-22T02:45:12.798Z,29.90
2023-04-22T02:45:43.224Z,29.90
2023-04-22T02:46:13.708Z,29.99
2023-04-22T02:46:44.107Z,29.99
2023-04-22T02:47:14.497Z,29.99
2023-04-22T02:47:44.962Z,29.99
2023-04-22T02:48:15.350Z,30.10
2023-04-22T02:48:45.774Z,29.90
2023-04-22T02:49:16.212Z,29.99
2023-04-22T02:49:46.616Z,30.10
2023-04-22T02:50:17.066Z,29.90
2023-04-22T02:50:47.486Z,29.90
2023-04-22T02:51:17.909Z,29.99
2023-04-22T02:51:48.338Z,30.19
2023-04-22T02:52:18.748Z,30.19
2023-04-22T02:52:49.173Z,30.10
2023-04-22T02:53:19.592Z,29.99
2023-04-22T02:53:50.020Z,29.99
2023-04-22T02:54:20.449Z,29.99
2023-04-22T02:54:50.869Z,30.10
2023-04-22T02:55:21.311Z,29.99
2023-04-22T02:55:51.744Z,29.99
2023-04-22T02:56:22.163Z,29.99
2023-04-22T02:56:52.586Z,29.90
2023-04-22T02:57:23.004Z,30.10
2023-04-22T02:57:53.424Z,30.10
2023-04-22T02:58:23.862Z,29.90
2023-04-22T02:58:54.276Z,29.99
2023-04-22T02:59:24.705Z,29.99
2023-04-22T02:59:55.130Z,29.99
2023-04-22T03:00:25.573Z,29.99
2023-04-22T03:00:56.012Z,29.90
2023-04-22T03:01:26.583Z,29.99
2023-04-22T03:01:57.117Z,29.90
2023-04-22T03:02:27.635Z,29.99
2023-04-22T03:02:58.280Z,29.99
2023-04-22T03:03:28.906Z,29.99
2023-04-22T03:03:59.835Z,29.99
2023-04-22T03:04:30.772Z,29.90
2023-04-22T03:05:01.216Z,29.90
2023-04-22T03:05:31.650Z,29.99
2023-04-22T03:06:02.080Z,30.19
2023-04-22T03:06:32.495Z,30.19
2023-04-22T03:07:02.933Z,30.19
2023-04-22T03:07:33.358Z,29.99
2023-04-22T03:08:03.792Z,30.19
2023-04-22T03:08:34.204Z,30.10
2023-04-22T03:09:04.625Z,30.10
2023-04-22T03:09:35.046Z,30.19
2023-04-22T03:10:05.467Z,30.19
2023-04-22T03:10:35.906Z,29.99
2023-04-22T03:11:06.342Z,29.99
2023-04-22T03:11:36.767Z,30.19
2023-04-22T03:12:07.191Z,30.10
2023-04-22T03:12:37.618Z,29.90
2023-04-22T03:13:08.037Z,29.90
2023-04-22T03:13:38.468Z,29.99
2023-04-22T03:14:08.875Z,29.99
2023-04-22T03:14:39.308Z,29.99
2023-04-22T03:15:09.747Z,30.10
2023-04-22T03:15:40.179Z,29.90
2023-04-22T03:16:10.650Z,29.99
2023-04-22T03:16:41.048Z,29.80
2023-04-22T03:17:11.458Z,29.90
2023-04-22T03:17:41.899Z,29.99
2023-04-22T03:18:12.309Z,29.99
2023-04-22T03:18:42.741Z,29.90
2023-04-22T03:19:13.163Z,29.99
2023-04-22T03:19:43.949Z,29.99
2023-04-22T03:20:14.403Z,30.19
2023-04-22T03:20:44.854Z,30.10
2023-04-22T03:21:15.316Z,29.90
2023-04-22T03:21:45.745Z,29.90
2023-04-22T03:22:16.156Z,29.90
2023-04-22T03:22:46.602Z,29.90
2023-04-22T03:23:17.017Z,29.90
2023-04-22T03:23:47.436Z,29.90
2023-04-22T03:24:17.856Z,29.90
2023-04-22T03:24:48.272Z,29.80
2023-04-22T03:25:18.699Z,29.80
2023-04-22T03:25:49.135Z,29.80
2023-04-22T03:26:19.559Z,29.90
2023-04-22T03:26:49.978Z,29.90
2023-04-22T03:27:20.405Z,29.90
2023-04-22T03:27:50.829Z,29.90
2023-04-22T03:28:21.254Z,29.90
2023-04-22T03:28:51.674Z,29.90
2023-04-22T03:29:22.096Z,29.90
2023-04-22T03:29:52.534Z,29.90
2023-04-22T03:30:22.960Z,29.90
2023-04-22T03:30:53.407Z,29.90
2023-04-22T03:31:23.814Z,29.90
2023-04-22T03:31:54.272Z,30.10
2023-04-22T03:32:24.744Z,29.90
2023-04-22T03:32:55.149Z,29.90
2023-04-22T03:33:25.573Z,29.99
2023-04-22T03:33:55.998Z,30.10
2023-04-22T03:34:26.418Z,30.40
2023-04-22T03:34:56.874Z,29.90
2023-04-22T03:35:27.276Z,29.80
2023-04-22T03:35:57.713Z,29.90
2023-04-22T03:36:28.164Z,30.10
2023-04-22T03:36:58.578Z,30.10
2023-04-22T03:37:28.990Z,30.29
2023-04-22T03:37:59.409Z,30.10
2023-04-22T03:38:29.851Z,29.99
2023-04-22T03:39:00.254Z,29.99
2023-04-22T03:39:30.688Z,29.99
2023-04-22T03:40:01.122Z,29.99
2023-04-22T03:40:31.547Z,30.10
2023-04-22T03:41:01.980Z,29.80
2023-04-22T03:41:32.403Z,29.90
2023-04-22T03:42:02.842Z,29.99
2023-04-22T03:42:33.252Z,29.90
2023-04-22T03:43:03.681Z,30.29
2023-04-22T03:43:34.108Z,30.10
2023-04-22T03:44:04.520Z,30.10
2023-04-22T03:44:35.471Z,29.90
2023-04-22T03:45:05.894Z,29.80
2023-04-22T03:45:36.346Z,29.90
2023-04-22T03:46:06.804Z,29.99
2023-04-22T03:46:37.206Z,29.99
2023-04-22T03:47:07.950Z,29.99
2023-04-22T03:47:38.784Z,29.99
2023-04-22T03:48:09.295Z,29.80
2023-04-22T03:48:39.769Z,29.90
2023-04-22T03:49:10.247Z,29.90
2023-04-22T03:49:40.954Z,29.90
2023-04-22T03:50:11.652Z,29.99
2023-04-22T03:50:42.064Z,29.80
2023-04-22T03:51:12.492Z,29.90
2023-04-22T03:51:42.919Z,29.80
2023-04-22T03:52:13.334Z,29.90
2023-04-22T03:52:43.758Z,29.90
2023-04-22T03:53:14.180Z,29.90
2023-04-22T03:53:44.616Z,29.90
2023-04-22T03:54:15.041Z,29.90
2023-04-22T03:54:45.465Z,29.90
2023-04-22T03:55:15.886Z,29.90
2023-04-22T03:55:46.312Z,29.99
2023-04-22T03:56:16.747Z,29.90
2023-04-22T03:56:47.167Z,29.90
2023-04-22T03:57:17.612Z,29.90
2023-04-22T03:57:48.050Z,29.90
2023-04-22T03:58:18.471Z,29.90
2023-04-22T03:58:48.889Z,29.99
2023-04-22T03:59:19.308Z,29.90
2023-04-22T03:59:49.726Z,29.90
2023-04-22T04:00:20.154Z,29.90
2023-04-22T04:00:50.572Z,29.99
2023-04-22T04:01:21.034Z,29.99
2023-04-22T04:01:51.458Z,29.90
2023-04-22T04:02:21.946Z,29.90
2023-04-22T04:02:52.553Z,29.80
2023-04-22T04:03:23.236Z,29.80
2023-04-22T04:03:53.895Z,29.90
2023-04-22T04:04:24.729Z,29.80
2023-04-22T04:04:55.539Z,29.80
2023-04-22T04:05:26.331Z,29.80
2023-04-22T04:05:56.822Z,29.80
2023-04-22T04:06:27.206Z,29.80
2023-04-22T04:06:57.630Z,29.80
2023-04-22T04:07:28.059Z,29.80
2023-04-22T04:07:58.483Z,29.69
2023-04-22T04:08:28.909Z,29.80
2023-04-22T04:08:59.324Z,29.80
2023-04-22T04:09:29.744Z,29.69
2023-04-22T04:10:00.214Z,29.80
2023-04-22T04:10:30.608Z,29.80
2023-04-22T04:11:01.032Z,29.69
2023-04-22T04:11:31.489Z,29.80
2023-04-22T04:12:01.905Z,29.80
2023-04-22T04:12:32.325Z,29.90
2023-04-22T04:13:02.754Z,29.90
2023-04-22T04:13:33.173Z,29.80
2023-04-22T04:14:03.589Z,29.90
2023-04-22T04:14:34.012Z,29.90
2023-04-22T04:15:04.448Z,29.90
2023-04-22T04:15:34.899Z,29.80
2023-04-22T04:16:05.547Z,29.90
2023-04-22T04:16:36.116Z,30.10
2023-04-22T04:17:06.518Z,29.80
2023-04-22T04:17:36.976Z,29.80
2023-04-22T04:18:07.386Z,29.80
2023-04-22T04:18:37.788Z,29.90
2023-04-22T04:19:08.216Z,29.80
2023-04-22T04:19:38.921Z,29.80
2023-04-22T04:20:09.505Z,29.80
2023-04-22T04:20:39.958Z,29.69
2023-04-22T04:21:10.352Z,29.80
2023-04-22T04:21:40.788Z,29.80
2023-04-22T04:22:11.217Z,29.69
2023-04-22T04:22:41.648Z,29.69
2023-04-22T04:23:12.071Z,29.80
2023-04-22T04:23:42.507Z,29.69
2023-04-22T04:24:12.915Z,29.69
2023-04-22T04:24:43.346Z,29.69
2023-04-22T04:25:13.768Z,29.69
2023-04-22T04:25:44.216Z,29.69
2023-04-22T04:26:14.636Z,29.69
2023-04-22T04:26:45.067Z,29.69
2023-04-22T04:27:15.492Z,29.60
2023-04-22T04:27:45.915Z,29.69
2023-04-22T04:28:16.338Z,29.60
2023-04-22T04:28:46.761Z,29.69
2023-04-22T04:29:17.183Z,29.60
2023-04-22T04:29:47.610Z,29.69
2023-04-22T04:30:18.041Z,29.60
2023-04-22T04:30:48.468Z,29.68
2023-04-22T04:31:18.918Z,29.49
2023-04-22T04:31:49.427Z,29.69
2023-04-22T04:32:19.911Z,29.58
2023-04-22T04:32:50.326Z,29.58
2023-04-22T04:33:20.723Z,29.58
2023-04-22T04:33:51.152Z,29.48
2023-04-22T04:34:21.572Z,29.48
2023-04-22T04:34:51.998Z,29.38
2023-04-22T04:35:22.417Z,29.38
2023-04-22T04:35:52.862Z,29.48
2023-04-22T04:36:23.268Z,29.48
2023-04-22T04:36:53.707Z,29.48
2023-04-22T04:37:24.132Z,29.48
2023-04-22T04:37:54.563Z,29.48
2023-04-22T04:38:24.983Z,29.48
2023-04-22T04:38:55.761Z,29.48
2023-04-22T04:39:26.198Z,29.38
2023-04-22T04:39:56.629Z,29.48
2023-04-22T04:40:27.056Z,29.48
2023-04-22T04:40:57.470Z,29.38
2023-04-22T04:41:27.895Z,29.48
2023-04-22T04:41:58.332Z,29.38
2023-04-22T04:42:28.752Z,29.48
2023-04-22T04:42:59.180Z,29.38
2023-04-22T04:43:29.600Z,29.28
2023-04-22T04:44:00.040Z,29.38
2023-04-22T04:44:30.452Z,29.38
2023-04-22T04:45:00.876Z,29.38
2023-04-22T04:45:31.295Z,29.28
2023-04-22T04:46:01.726Z,29.38
2023-04-22T04:46:32.161Z,29.38
2023-04-22T04:47:02.709Z,29.48
2023-04-22T04:47:33.204Z,29.48
2023-04-22T04:48:03.647Z,29.48
2023-04-22T04:48:34.124Z,29.48
2023-04-22T04:49:04.546Z,29.38
2023-04-22T04:49:34.971Z,29.38
2023-04-22T04:50:05.401Z,29.48
2023-04-22T04:50:35.821Z,29.48
2023-04-22T04:51:06.262Z,29.48
2023-04-22T04:51:36.668Z,29.48
2023-04-22T04:52:07.104Z,29.38
2023-04-22T04:52:37.529Z,29.38
2023-04-22T04:53:07.943Z,29.38
2023-04-22T04:53:38.380Z,29.48
2023-04-22T04:54:08.852Z,29.38
2023-04-22T04:54:39.260Z,29.38
2023-04-22T04:55:09.666Z,29.38
2023-04-22T04:55:40.136Z,29.38
2023-04-22T04:56:10.525Z,29.38
2023-04-22T04:56:40.951Z,29.28
2023-04-22T04:57:11.380Z,29.28
2023-04-22T04:57:41.817Z,29.27
2023-04-22T04:58:12.225Z,29.36
2023-04-22T04:58:42.651Z,29.27
2023-04-22T04:59:13.072Z,29.17
2023-04-22T04:59:43.504Z,29.17
2023-04-22T05:00:13.929Z,29.06
2023-04-22T05:00:44.353Z,29.06
2023-04-22T05:01:14.816Z,29.17
2023-04-22T05:01:45.339Z,29.06
2023-04-22T05:02:15.856Z,29.17
2023-04-22T05:02:46.556Z,29.17
2023-04-22T05:03:17.256Z,29.17
2023-04-22T05:03:47.897Z,29.17
2023-04-22T05:04:18.624Z,29.17
2023-04-22T05:04:49.292Z,29.17
2023-04-22T05:05:19.754Z,29.17
2023-04-22T05:05:50.178Z,29.27
2023-04-22T05:06:20.665Z,29.27
2023-04-22T05:06:51.048Z,29.27
2023-04-22T05:07:21.498Z,29.27
2023-04-22T05:07:51.911Z,29.27
2023-04-22T05:08:22.334Z,29.27
2023-04-22T05:08:52.761Z,29.27
2023-04-22T05:09:23.182Z,29.27
2023-04-22T05:09:53.613Z,29.27
2023-04-22T05:10:24.059Z,29.27
2023-04-22T05:10:54.461Z,29.27
2023-04-22T05:11:24.906Z,29.27
2023-04-22T05:11:55.312Z,29.27
2023-04-22T05:12:25.750Z,29.27
2023-04-22T05:12:56.176Z,29.27
2023-04-22T05:13:26.619Z,29.27
2023-04-22T05:13:57.034Z,29.27
2023-04-22T05:14:27.456Z,29.27
2023-04-22T05:14:57.904Z,29.27
2023-04-22T05:15:28.317Z,29.27
2023-04-22T05:15:58.770Z,29.27
2023-04-22T05:16:29.209Z,29.27
2023-04-22T05:16:59.651Z,29.17
2023-04-22T05:17:30.127Z,29.27
2023-04-22T05:18:00.533Z,29.17
2023-04-22T05:18:30.921Z,29.17
2023-04-22T05:19:01.377Z,29.17
2023-04-22T05:19:31.780Z,29.17
2023-04-22T05:20:02.204Z,29.05
2023-04-22T05:20:35.369Z,29.15
2023-04-22T05:21:06.450Z,29.15
2023-04-22T05:21:36.886Z,29.05
2023-04-22T05:22:07.297Z,29.05
2023-04-22T05:22:37.733Z,29.05
2023-04-22T05:23:08.151Z,29.05
2023-04-22T05:23:38.575Z,29.05
2023-04-22T05:24:09.007Z,29.05
2023-04-22T05:24:39.426Z,29.05
2023-04-22T05:25:09.849Z,29.05
2023-04-22T05:25:40.274Z,29.05
2023-04-22T05:26:10.695Z,29.05
2023-04-22T05:26:41.136Z,29.05
2023-04-22T05:27:11.563Z,29.05
2023-04-22T05:27:42.013Z,29.05
2023-04-22T05:28:12.435Z,28.96
2023-04-22T05:28:42.866Z,28.96
2023-04-22T05:29:13.302Z,28.96
2023-04-22T05:29:43.725Z,28.96
2023-04-22T05:30:14.149Z,28.96
2023-04-22T05:30:44.588Z,28.96
2023-04-22T05:31:15.002Z,28.96
2023-04-22T05:31:45.458Z,28.96
2023-04-22T05:32:15.976Z,28.96
2023-04-22T05:32:46.498Z,28.96
2023-04-22T05:33:16.920Z,28.96
2023-04-22T05:33:47.371Z,28.96
2023-04-22T05:34:17.764Z,28.96
2023-04-22T05:34:48.187Z,28.96
2023-04-22T05:35:18.607Z,28.96
2023-04-22T05:35:49.033Z,28.96
2023-04-22T05:36:19.467Z,28.85
2023-04-22T05:36:49.888Z,28.94
2023-04-22T05:37:20.302Z,28.84
2023-04-22T05:37:50.743Z,28.84
2023-04-22T05:38:21.171Z,28.84
2023-04-22T05:38:51.594Z,28.84
2023-04-22T05:39:22.028Z,28.84
2023-04-22T05:39:52.442Z,28.84
2023-04-22T05:40:22.877Z,28.84
2023-04-22T05:40:53.297Z,28.84
2023-04-22T05:41:23.707Z,28.74
2023-04-22T05:41:54.141Z,28.74
2023-04-22T05:42:24.555Z,28.74
2023-04-22T05:42:55.005Z,28.74
2023-04-22T05:43:25.429Z,28.74
2023-04-22T05:43:55.866Z,28.74
2023-04-22T05:44:26.275Z,28.74
2023-04-22T05:44:56.699Z,28.74
2023-04-22T05:45:27.137Z,28.74
2023-04-22T05:45:57.616Z,28.74
2023-04-22T05:46:28.127Z,28.74
2023-04-22T05:46:58.521Z,28.74
2023-04-22T05:47:28.942Z,28.74
2023-04-22T05:47:59.468Z,28.74
2023-04-22T05:48:29.876Z,28.63
2023-04-22T05:49:00.296Z,28.63
2023-04-22T05:49:30.724Z,28.63
2023-04-22T05:50:01.152Z,28.63
2023-04-22T05:50:31.579Z,28.63
2023-04-22T05:51:02.019Z,28.63
2023-04-22T05:51:32.434Z,28.53
2023-04-22T05:52:02.875Z,28.53
2023-04-22T05:52:33.275Z,28.53
2023-04-22T05:53:03.717Z,28.53
2023-04-22T05:53:34.153Z,28.53
2023-04-22T05:54:04.568Z,28.53
2023-04-22T05:54:35.004Z,28.53
2023-04-22T05:55:05.419Z,28.53
2023-04-22T05:55:35.845Z,28.53
2023-04-22T05:56:06.271Z,28.53
2023-04-22T05:56:36.688Z,28.53
2023-04-22T05:57:07.111Z,28.53
2023-04-22T05:57:37.535Z,28.53
2023-04-22T05:58:07.970Z,28.53
2023-04-22T05:58:38.401Z,28.53
2023-04-22T05:59:08.817Z,28.53
2023-04-22T05:59:39.542Z,28.53
2023-04-22T06:00:10.101Z,28.42
2023-04-22T06:00:40.534Z,28.42
2023-04-22T06:01:10.951Z,28.42
2023-04-22T06:01:41.380Z,28.53
2023-04-22T06:02:11.874Z,28.42
2023-04-22T06:02:42.400Z,28.41
2023-04-22T06:03:13.063Z,28.41
2023-04-22T06:03:43.829Z,28.41
2023-04-22T06:04:14.571Z,28.41
2023-04-22T06:04:45.449Z,28.41
2023-04-22T06:05:16.119Z,28.41
2023-04-22T06:05:46.624Z,28.41
2023-04-22T06:06:17.095Z,28.41
2023-04-22T06:06:47.507Z,28.41
2023-04-22T06:07:17.979Z,28.41
2023-04-22T06:07:48.352Z,28.41
2023-04-22T06:08:18.810Z,28.41
2023-04-22T06:08:49.278Z,28.41
2023-04-22T06:09:19.665Z,28.41
2023-04-22T06:09:50.126Z,28.41
2023-04-22T06:10:21.413Z,28.41
2023-04-22T06:10:51.838Z,28.41
2023-04-22T06:11:22.259Z,28.41
2023-04-22T06:11:52.681Z,28.41
2023-04-22T06:12:23.127Z,28.41
2023-04-22T06:12:53.556Z,28.41
2023-04-22T06:13:23.995Z,28.41
2023-04-22T06:13:54.421Z,28.41
2023-04-22T06:14:24.840Z,28.31
2023-04-22T06:14:55.260Z,28.31
2023-04-22T06:15:25.690Z,28.31
2023-04-22T06:15:56.167Z,28.31
2023-04-22T06:16:26.598Z,28.31
2023-04-22T06:16:57.011Z,28.31
2023-04-22T06:17:27.590Z,28.31
2023-04-22T06:17:58.071Z,28.31
2023-04-22T06:18:28.931Z,28.30
2023-04-22T06:18:59.542Z,28.30
2023-04-22T06:19:29.965Z,28.30
2023-04-22T06:20:00.397Z,28.30
2023-04-22T06:20:30.803Z,28.30
2023-04-22T06:21:01.234Z,28.30
2023-04-22T06:21:31.649Z,28.30
2023-04-22T06:22:02.075Z,28.30
2023-04-22T06:22:32.518Z,28.30
2023-04-22T06:23:02.920Z,28.20
2023-04-22T06:23:33.359Z,28.20
2023-04-22T06:24:03.780Z,28.20
2023-04-22T06:24:34.202Z,28.20
2023-04-22T06:25:04.623Z,28.20
2023-04-22T06:25:35.045Z,28.20
2023-04-22T06:26:05.475Z,28.20
2023-04-22T06:26:35.906Z,28.20
2023-04-22T06:27:06.334Z,28.20
2023-04-22T06:27:36.753Z,28.20
2023-04-22T06:28:07.181Z,28.20
2023-04-22T06:28:37.635Z,28.20
2023-04-22T06:29:08.050Z,28.20
2023-04-22T06:29:38.817Z,28.20
2023-04-22T06:30:09.410Z,28.19
2023-04-22T06:30:39.832Z,28.19
2023-04-22T06:31:10.287Z,28.09
2023-04-22T06:31:40.774Z,28.09
2023-04-22T06:32:11.179Z,28.09